San Diego, CA (92101)

2:50 PM PST on February 22, 2017 (GMT -0800)
Union Square Condominiums | | Change Station
Active Advisory: High Surf Advisory Active Notice: High Surf Advisory

Elev 79 ft 32.72 °N, 117.15 °W | Updated 1 minute ago

Mostly Cloudy
Mostly Cloudy
62.6 °F
Feels Like 62.6 °F
N
1.7
Wind Variable Wind from SE

Today
High -- | Low -- °F
--% Chance of Precip.
Yesterday
High -- | Low -- °F
Precip. -- in
Pressure 30.10 in
Visibility 10.0 miles
Clouds Scattered Clouds 1700 ft
Scattered Clouds 8000 ft
Mostly Cloudy 20000 ft
Mostly Cloudy 25000 ft
Dew Point 49 °F
Humidity 61%
Rainfall 0.00 in
Snow Depth Not available.
6:24 AM 5:40 PM
Waning Crescent, 14% visible
METAR KSAN 222151Z 30014G20KT 10SM SCT017 SCT080 BKN200 BKN250 17/08 A3010 RMK AO2 SLP193 T01720083
Pressure 30.10 in
Visibility 10.0 miles
Clouds Scattered Clouds 1700 ft
Scattered Clouds 8000 ft
Mostly Cloudy 20000 ft
Mostly Cloudy 25000 ft
Dew Point 49 °F
Humidity 61%
Rainfall 0.00 in
Snow Depth Not available.
6:24 AM 5:40 PM
Waning Crescent, 14% visible
METAR KSAN 222151Z 30014G20KT 10SM SCT017 SCT080 BKN200 BKN250 17/08 A3010 RMK AO2 SLP193 T01720083

Get Your Daily Forecast Email!

Thanks for signing up!

Be on the lookout for a verification email in your inbox.

You'll start receiving the daily forecast at 8 AM.

×

10-Day Weather Forecast

Almanac

Astronomy

Feb. 22, 2017 Rise Set
Actual Time
Civil Twilight
Nautical Twilight
Astronomical Twilight
Moon
Length of Visible Light
Length of Day
Tomorrow will be .
, % of the Moon is Illuminated

Today's Extremes

State Highs State Lows

Community

WunderPhotos

Upload Photos

1,962,540 photos uploaded!

WunderBlog® & News

Nearby

Air Quality

  Air Quality AQ Index Pollutant
Not available.

Snow Depth

Station Depth Elevation

Earthquake Activity

City Distance Mag. Time & Date
Minimum magnitude displayed is 2.5.

Coastal Water Temperatures

Place Temperature

Stations

Nearby Weather Stations

Station Location Temp. Windchill Dew Point Humidity Wind Precip. Elev Updated Type
                   

Watches & Warnings

High Surf Advisory
Issued: 2:04 PM PST Feb. 22, 2017 – National Weather Service

... High surf advisory remains in effect until 2 am PST Friday...

* surf... 5 to 8 ft with sets to 10 ft. Swell and surf will slowly
lower during the day Thursday.

* Timing... through Thursday night with the highest surf expected
late this afternoon and evening.

* Tides... high tide of 5.2 to 5.3 ft at around 645 am Thursday.

* Impacts... strong rip currents and dangerous swimming
conditions. Minor flooding possible at susceptible low lying
beach areas during high tide.

Precautionary/preparedness actions...

A high surf advisory means that high surf will affect beaches in
the advisory area... producing localized beach erosion and
dangerous swimming conditions.